Time;durP1;ratioP1;P1;durP2;ratioP2;P2;SDS_P1;SDS_P2;PMS_P1;PMS_P2;Temp;Humidity;BMP_temperature;BMP_pressure;BME280_temperature;BME280_humidity;BME280_pressure;Samples;Min_cycle;Max_cycle;Signal;HPM_P1;HPM_P2
2022/10/08 00:03:00;;;;;;;11.50;6.78;;;18.60;78.20;;;;;;10829232;32;20384;-77
2022/10/08 00:09:06;;;;;;;12.63;7.37;;;18.50;78.30;;;;;;10830120;32;20069;-77
2022/10/08 00:15:09;;;;;;;11.55;8.55;;;18.50;78.30;;;;;;10829609;32;20057;-77
2022/10/08 00:21:15;;;;;;;9.18;6.65;;;18.40;78.40;;;;;;10830390;32;20024;-77
2022/10/08 00:27:17;;;;;;;9.25;7.00;;;18.40;78.40;;;;;;10817349;32;20439;-79
2022/10/08 00:33:20;;;;;;;10.10;6.85;;;18.40;78.50;;;;;;10829202;32;20062;-79
2022/10/08 00:39:23;;;;;;;8.98;7.07;;;18.30;78.60;;;;;;10829914;32;20066;-76
2022/10/08 00:45:25;;;;;;;7.65;6.25;;;18.30;78.50;;;;;;10816688;32;20043;-76
2022/10/08 00:51:28;;;;;;;8.45;5.32;;;18.20;78.60;;;;;;10816618;33;20024;-77
2022/10/08 00:57:33;;;;;;;19.42;6.78;;;18.20;78.80;;;;;;10825417;33;20302;-77
2022/10/08 01:03:35;;;;;;;10.57;7.32;;;18.20;78.70;;;;;;10825600;33;20024;-77
2022/10/08 01:10:03;;;;;;;8.25;6.82;;;18.20;78.70;;;;;;10829375;33;20071;-77
2022/10/08 01:16:20;;;;;;;10.50;7.63;;;18.10;78.70;;;;;;10812197;33;20393;-77
2022/10/08 01:22:40;;;;;;;6.43;5.75;;;18.10;78.70;;;;;;10837184;32;20080;-77
2022/10/08 01:28:49;;;;;;;7.65;5.90;;;18.00;78.80;;;;;;10836755;32;20012;-77
2022/10/08 01:35:08;;;;;;;10.70;7.55;;;18.00;78.80;;;;;;10823203;32;20081;-77
2022/10/08 01:41:12;;;;;;;;;;;17.90;78.80;;;;;;10823093;32;20024;-76
2022/10/08 01:47:18;;;;;;;6.12;4.53;;;17.80;79.00;;;;;;10831684;33;19927;-78
2022/10/08 01:53:24;;;;;;;8.35;5.93;;;17.70;79.20;;;;;;10834648;32;20058;-78
2022/10/08 01:59:35;;;;;;;6.05;4.45;;;17.70;79.30;;;;;;10833028;32;20054;-78
2022/10/08 02:05:42;;;;;;;7.50;5.43;;;17.60;79.40;;;;;;10817974;33;20055;-78
2022/10/08 02:11:44;;;;;;;5.80;4.15;;;17.50;79.50;;;;;;10834913;32;20020;-78
2022/10/08 02:18:17;;;;;;;11.20;6.95;;;17.50;79.60;;;;;;10834702;32;20036;-78
2022/10/08 02:24:27;;;;;;;8.32;6.78;;;17.50;79.60;;;;;;10681653;33;20052;-78
2022/10/08 02:30:39;;;;;;;11.00;6.80;;;17.50;79.70;;;;;;10683762;33;20063;-77
2022/10/08 02:36:45;;;;;;;10.57;6.30;;;17.40;79.70;;;;;;10684213;33;20052;-76
2022/10/08 02:42:54;;;;;;;7.87;5.68;;;17.40;79.70;;;;;;10684028;33;20060;-76
2022/10/08 02:49:16;;;;;;;7.90;5.60;;;17.40;79.70;;;;;;10683773;33;20052;-78
2022/10/08 02:55:36;;;;;;;6.03;5.10;;;17.30;79.80;;;;;;10682922;33;20037;-78
2022/10/08 03:01:43;;;;;;;7.47;5.22;;;17.30;79.70;;;;;;10828820;32;20028;-77
2022/10/08 03:08:07;;;;;;;5.78;4.87;;;17.30;79.70;;;;;;10833152;32;20054;-76
2022/10/08 03:14:12;;;;;;;10.73;5.75;;;17.30;79.60;;;;;;10828770;33;20107;-76
2022/10/08 03:20:14;;;;;;;6.55;5.20;;;17.30;79.70;;;;;;10828397;33;20036;-76
2022/10/08 03:26:17;;;;;;;7.12;6.20;;;17.20;79.80;;;;;;10827966;33;20054;-76
2022/10/08 03:32:19;;;;;;;8.38;4.43;;;17.20;79.80;;;;;;10827982;33;20431;-76
2022/10/08 03:38:21;;;;;;;11.43;9.20;;;17.10;79.90;;;;;;10831720;32;20063;-76
2022/10/08 03:44:23;;;;;;;16.17;7.97;;;17.10;79.90;;;;;;10831573;32;20020;-76
2022/10/08 03:50:25;;;;;;;7.07;5.22;;;17.10;79.70;;;;;;10831626;32;20427;-76
2022/10/08 03:56:27;;;;;;;9.32;6.78;;;17.20;79.70;;;;;;10818113;32;20036;-78
2022/10/08 04:02:31;;;;;;;9.63;5.72;;;17.20;79.80;;;;;;10831139;32;20043;-78
2022/10/08 04:08:34;;;;;;;9.48;5.80;;;17.20;79.90;;;;;;10831117;32;20301;-76
2022/10/08 04:14:35;;;;;;;7.18;5.15;;;17.10;79.70;;;;;;10440606;32;11873626;-78
2022/10/08 04:20:41;;;;;;;10.45;7.05;;;17.10;79.70;;;;;;10741639;33;20036;-78
2022/10/08 04:26:43;;;;;;;6.10;5.07;;;17.00;79.70;;;;;;10749207;33;20424;-77
2022/10/08 04:32:45;;;;;;;7.78;6.12;;;17.00;79.80;;;;;;10753436;33;20043;-78
2022/10/08 04:38:48;;;;;;;9.30;6.22;;;16.90;80.00;;;;;;10763955;32;20044;-77
2022/10/08 04:45:06;;;;;;;5.95;4.50;;;16.80;80.10;;;;;;10829984;32;20019;-77
2022/10/08 04:58:27;;;;;;;6.57;5.07;;;16.70;80.30;;;;;;10841966;32;20154;-78
2022/10/08 05:04:29;;;;;;;8.57;6.45;;;16.70;80.20;;;;;;10837919;32;20016;-77
2022/10/08 05:10:31;;;;;;;7.62;5.87;;;16.60;80.30;;;;;;10841812;32;20012;-77
2022/10/08 05:16:33;;;;;;;7.70;5.93;;;16.50;80.40;;;;;;10841711;32;20046;-78
2022/10/08 05:22:41;;;;;;;7.37;5.40;;;16.50;80.50;;;;;;10837576;32;20028;-77
2022/10/08 05:28:45;;;;;;;7.78;6.20;;;16.50;80.50;;;;;;10841705;32;20317;-78
2022/10/08 05:34:48;;;;;;;11.85;5.68;;;16.40;80.40;;;;;;10841591;32;20059;-77
2022/10/08 05:40:50;;;;;;;13.43;5.03;;;16.40;80.50;;;;;;10841408;32;20042;-77
2022/10/08 05:46:52;;;;;;;7.53;5.78;;;16.40;80.50;;;;;;10841320;32;20063;-77
2022/10/08 05:52:54;;;;;;;6.40;5.05;;;16.30;80.60;;;;;;10841239;32;20027;-78
2022/10/08 05:58:56;;;;;;;6.43;5.28;;;16.30;80.60;;;;;;10836836;33;20384;-74
2022/10/08 06:04:58;;;;;;;7.00;5.55;;;16.30;80.60;;;;;;10838384;32;20031;-74
2022/10/08 06:11:02;;;;;;;7.15;5.20;;;16.40;80.60;;;;;;10835186;32;20039;-75
2022/10/08 06:17:03;;;;;;;6.85;5.55;;;16.30;80.70;;;;;;10836646;27;20086;-74
2022/10/08 06:23:05;;;;;;;6.57;4.40;;;16.40;80.70;;;;;;10830315;33;20024;-74
2022/10/08 06:29:13;;;;;;;7.95;5.30;;;16.50;80.60;;;;;;10834166;32;20035;-74
2022/10/08 06:35:15;;;;;;;6.60;5.50;;;16.40;80.70;;;;;;10820907;32;20325;-74
2022/10/08 06:41:17;;;;;;;9.48;5.43;;;16.40;80.80;;;;;;10829674;33;20032;-74
2022/10/08 06:47:29;;;;;;;5.80;4.28;;;16.40;80.80;;;;;;10820582;32;20392;-74
2022/10/08 06:53:33;;;;;;;5.55;3.95;;;16.40;80.70;;;;;;10829354;32;20434;-75
2022/10/08 06:59:36;;;;;;;6.78;4.82;;;16.30;80.80;;;;;;10833031;32;20055;-75
2022/10/08 07:05:38;;;;;;;5.78;3.80;;;16.40;81.00;;;;;;10833145;32;20055;-75
2022/10/08 07:11:40;;;;;;;6.68;3.47;;;16.50;80.90;;;;;;10832833;32;20385;-74
2022/10/08 07:17:42;;;;;;;6.25;3.97;;;16.50;80.80;;;;;;10828156;32;20054;-75
2022/10/08 07:23:44;;;;;;;3.70;2.80;;;16.70;80.80;;;;;;10828416;33;20051;-74
2022/10/08 07:29:46;;;;;;;5.50;3.72;;;16.80;80.60;;;;;;10819052;32;20051;-75
2022/10/08 07:35:49;;;;;;;6.65;3.20;;;16.90;80.60;;;;;;10831839;32;20020;-74
2022/10/08 07:41:51;;;;;;;4.75;2.85;;;17.00;80.50;;;;;;10831718;32;20023;-75
2022/10/08 07:47:53;;;;;;;4.75;3.37;;;17.20;80.30;;;;;;10831614;32;20051;-74
2022/10/08 07:53:56;;;;;;;4.70;2.95;;;17.30;80.10;;;;;;10818187;32;20032;-75
2022/10/08 07:59:59;;;;;;;4.28;3.33;;;17.50;80.00;;;;;;10818045;32;20356;-74
2022/10/08 08:06:04;;;;;;;4.22;2.92;;;17.60;79.90;;;;;;10818004;32;20020;-75
2022/10/08 08:12:05;;;;;;;5.70;3.75;;;17.70;79.80;;;;;;10830636;32;20059;-74
2022/10/08 08:18:07;;;;;;;5.12;3.10;;;17.80;79.80;;;;;;10826213;33;20040;-74
2022/10/08 08:24:12;;;;;;;5.80;3.25;;;17.90;79.80;;;;;;10827793;32;20082;-75
2022/10/08 08:30:16;;;;;;;5.37;3.62;;;18.10;79.90;;;;;;10814070;32;20050;-76
2022/10/08 08:36:43;;;;;;;5.45;3.60;;;18.20;80.40;;;;;;10826233;33;20024;-75
2022/10/08 08:42:54;;;;;;;9.50;3.37;;;18.30;80.20;;;;;;10824622;33;20044;-75
2022/10/08 08:49:03;;;;;;;6.85;4.37;;;18.30;80.10;;;;;;10826576;32;20039;-74
2022/10/08 08:55:32;;;;;;;6.90;4.03;;;18.30;79.80;;;;;;10824634;32;20036;-75
2022/10/08 09:01:41;;;;;;;6.35;3.83;;;18.30;79.70;;;;;;10750312;32;20226;-75
2022/10/08 09:07:50;;;;;;;8.75;3.58;;;18.40;79.50;;;;;;10773911;33;20102;-75
2022/10/08 09:14:14;;;;;;;4.75;3.22;;;18.60;79.00;;;;;;10786894;33;20024;-75
2022/10/08 09:20:34;;;;;;;5.57;3.65;;;18.70;78.70;;;;;;10788221;33;20059;-75
2022/10/08 09:26:36;;;;;;;13.10;3.87;;;18.80;78.60;;;;;;10753368;33;20421;-75
2022/10/08 09:33:00;;;;;;;4.82;3.70;;;18.90;78.30;;;;;;10752644;33;20172;-75
2022/10/08 09:39:12;;;;;;;9.43;5.30;;;19.00;77.90;;;;;;10786558;33;20063;-74
2022/10/08 09:45:33;;;;;;;7.22;3.42;;;19.20;77.80;;;;;;10795187;33;20027;-76
2022/10/08 09:51:35;;;;;;;6.10;2.87;;;19.30;77.70;;;;;;10812175;32;20412;-75
2022/10/08 09:57:44;;;;;;;5.85;3.53;;;19.50;77.70;;;;;;10835438;32;20040;-74
2022/10/08 10:03:58;;;;;;;5.03;3.45;;;19.60;77.60;;;;;;10822118;32;20027;-75
2022/10/08 10:10:02;;;;;;;3.90;2.75;;;19.80;77.10;;;;;;10834071;32;20062;-76
2022/10/08 10:16:14;;;;;;;2.80;2.55;;;19.80;76.80;;;;;;10834783;32;20012;-75
2022/10/08 10:22:45;;;;;;;4.20;2.97;;;20.00;76.40;;;;;;10830488;32;20055;-75
2022/10/08 10:28:56;;;;;;;4.20;2.70;;;20.10;75.80;;;;;;10832320;32;20024;-77
2022/10/08 10:35:25;;;;;;;4.57;2.78;;;20.40;75.40;;;;;;10833959;32;20077;-76
2022/10/08 10:41:57;;;;;;;5.05;3.03;;;20.60;75.00;;;;;;10817210;32;20020;-77
2022/10/08 10:48:03;;;;;;;3.75;2.50;;;20.80;74.10;;;;;;10833813;32;20036;-75
2022/10/08 10:54:43;;;;;;;7.65;3.12;;;21.10;73.60;;;;;;10832953;32;20024;-75
2022/10/08 11:00:57;;;;;;;4.93;3.47;;;21.30;73.00;;;;;;10829085;33;20039;-74
2022/10/08 11:07:29;;;;;;;3.25;2.37;;;21.60;72.50;;;;;;10821657;32;20024;-73
2022/10/08 11:13:40;;;;;;;7.20;4.32;;;21.90;71.60;;;;;;10828638;33;20055;-74
2022/10/08 11:19:57;;;;;;;6.93;3.87;;;22.20;70.40;;;;;;10828355;33;20047;-75
2022/10/08 11:26:11;;;;;;;9.18;3.40;;;22.30;69.50;;;;;;10828168;33;20325;-75
2022/10/08 11:32:16;;;;;;;7.28;3.22;;;22.40;69.60;;;;;;10827960;32;20062;-74
2022/10/08 11:38:18;;;;;;;4.15;2.55;;;22.50;69.30;;;;;;10831932;32;20035;-73
2022/10/08 11:44:29;;;;;;;8.40;3.78;;;22.50;69.00;;;;;;10818523;32;20051;-73
2022/10/08 11:50:36;;;;;;;6.03;2.95;;;22.50;68.20;;;;;;10830735;32;20332;-73
2022/10/08 11:56:44;;;;;;;6.18;3.60;;;22.50;67.80;;;;;;10826998;33;20058;-74
2022/10/08 12:02:52;;;;;;;5.43;3.17;;;22.30;68.00;;;;;;10828382;32;20062;-73
2022/10/08 12:09:05;;;;;;;7.73;3.43;;;22.30;67.90;;;;;;10831070;32;20364;-73
2022/10/08 12:15:28;;;;;;;9.45;4.03;;;22.30;67.60;;;;;;10830660;32;20043;-73
2022/10/08 12:21:31;;;;;;;5.43;3.55;;;22.40;67.20;;;;;;10864431;32;20058;-74
2022/10/08 12:27:36;;;;;;;9.63;4.45;;;22.40;67.40;;;;;;10863768;32;20034;-75
2022/10/08 12:33:38;;;;;;;6.30;4.25;;;22.40;67.20;;;;;;10862639;32;20050;-75
2022/10/08 12:39:43;;;;;;;4.95;3.22;;;22.30;67.30;;;;;;10862954;32;20035;-75
2022/10/08 12:46:05;;;;;;;7.75;4.68;;;22.30;67.10;;;;;;10863894;32;20043;-75
2022/10/08 12:52:23;;;;;;;6.20;3.67;;;22.30;67.20;;;;;;10834513;32;20320;-75
2022/10/08 12:58:30;;;;;;;4.50;2.45;;;22.30;67.10;;;;;;10829713;33;20066;-74
2022/10/08 13:04:33;;;;;;;13.85;3.47;;;22.30;66.70;;;;;;10825549;33;20360;-75
2022/10/08 13:10:45;;;;;;;4.43;3.33;;;22.40;66.50;;;;;;10809310;33;20040;-74
2022/10/08 13:16:58;;;;;;;5.75;3.15;;;22.40;66.40;;;;;;10797720;33;20416;-75
2022/10/08 13:23:01;;;;;;;8.32;4.00;;;22.40;66.20;;;;;;10799945;33;20024;-74
2022/10/08 13:29:21;;;;;;;8.15;2.72;;;22.40;66.10;;;;;;10816748;32;20082;-74
2022/10/08 13:35:23;;;;;;;9.23;3.10;;;22.50;66.00;;;;;;10836450;32;20051;-74
2022/10/08 13:41:26;;;;;;;4.60;2.22;;;22.60;65.80;;;;;;10836102;32;20310;-75
2022/10/08 13:47:28;;;;;;;5.40;2.58;;;22.70;65.60;;;;;;10835751;32;20024;-73
2022/10/08 13:53:30;;;;;;;10.25;4.07;;;22.80;65.20;;;;;;10831794;33;20051;-73
2022/10/08 13:59:33;;;;;;;4.22;2.65;;;22.80;64.70;;;;;;10834893;32;20051;-74
2022/10/08 14:05:42;;;;;;;5.35;2.75;;;22.80;64.70;;;;;;10832827;32;20027;-74
2022/10/08 14:11:46;;;;;;;8.20;3.65;;;22.90;64.60;;;;;;10834722;32;20032;-73
2022/10/08 14:17:49;;;;;;;7.78;3.37;;;23.00;64.60;;;;;;10835690;27;20027;-74
2022/10/08 14:23:51;;;;;;;9.32;3.45;;;23.00;64.20;;;;;;10834015;32;20043;-74
2022/10/08 14:29:53;;;;;;;7.20;3.30;;;23.20;64.20;;;;;;10829414;33;20312;-74
2022/10/08 14:35:55;;;;;;;5.68;3.28;;;23.20;64.20;;;;;;10831609;32;20024;-74
2022/10/08 14:41:57;;;;;;;10.18;4.28;;;23.30;64.20;;;;;;10831541;32;20393;-75
2022/10/08 14:47:59;;;;;;;20.58;6.43;;;23.30;64.50;;;;;;10833518;32;20024;-74
2022/10/08 14:54:06;;;;;;;9.43;5.12;;;23.30;64.40;;;;;;10829726;32;20028;-74
2022/10/08 15:00:23;;;;;;;9.68;5.45;;;23.30;64.50;;;;;;10829021;33;20032;-74
2022/10/08 15:06:25;;;;;;;9.50;4.95;;;23.30;64.30;;;;;;10828750;33;20092;-73
2022/10/08 15:12:27;;;;;;;16.67;4.22;;;23.30;64.20;;;;;;10828445;32;20309;-74
2022/10/08 15:18:36;;;;;;;9.38;3.72;;;23.30;64.10;;;;;;10830747;32;20054;-73
2022/10/08 15:24:38;;;;;;;12.80;2.80;;;23.40;63.50;;;;;;10829627;32;20367;-74
2022/10/08 15:30:42;;;;;;;5.87;3.25;;;23.70;62.90;;;;;;10831857;32;20024;-73
2022/10/08 15:37:01;;;;;;;5.57;2.97;;;24.30;61.40;;;;;;10819019;32;20032;-73
2022/10/08 15:43:04;;;;;;;5.55;3.28;;;24.80;60.70;;;;;;10827304;33;20197;-74
2022/10/08 15:49:06;;;;;;;6.78;2.60;;;25.00;60.50;;;;;;10828934;32;20016;-73
2022/10/08 15:55:26;;;;;;;11.68;3.37;;;24.60;61.00;;;;;;10828251;32;20025;-73
2022/10/08 16:01:28;;;;;;;6.97;4.18;;;24.30;61.40;;;;;;10826324;33;20324;-73
2022/10/08 16:07:31;;;;;;;6.05;3.92;;;24.10;61.70;;;;;;10828147;32;20400;-73
2022/10/08 16:13:32;;;;;;;7.30;4.12;;;23.50;62.60;;;;;;10842737;32;20040;-73
2022/10/08 16:19:34;;;;;;;7.62;3.92;;;22.80;63.70;;;;;;10839360;32;20071;-73
2022/10/08 16:25:36;;;;;;;7.30;3.87;;;22.40;64.60;;;;;;10830112;32;20028;-74
2022/10/08 16:31:40;;;;;;;8.52;3.47;;;22.10;65.20;;;;;;10842060;32;20062;-73
2022/10/08 16:37:42;;;;;;;9.85;4.07;;;21.90;65.70;;;;;;10866927;32;20055;-73
2022/10/08 16:44:11;;;;;;;7.32;4.47;;;21.80;66.10;;;;;;10863625;32;20443;-74
2022/10/08 16:50:13;;;;;;;5.90;3.20;;;21.60;66.40;;;;;;10865396;32;20023;-74
2022/10/08 16:56:40;;;;;;;8.48;3.83;;;21.40;66.80;;;;;;10866602;32;20004;-73
2022/10/08 17:02:42;;;;;;;9.00;4.53;;;21.30;67.00;;;;;;10866535;32;20031;-74
2022/10/08 17:09:04;;;;;;;9.60;4.50;;;21.30;67.40;;;;;;10864098;32;20403;-74
2022/10/08 17:15:07;;;;;;;8.95;4.20;;;21.10;67.60;;;;;;10862106;32;20336;-74
2022/10/08 17:21:09;;;;;;;7.80;4.47;;;21.00;67.90;;;;;;10865715;32;20049;-74
2022/10/08 17:27:12;;;;;;;8.38;5.47;;;20.90;68.10;;;;;;10866248;32;20028;-73
2022/10/08 17:33:14;;;;;;;8.25;4.53;;;20.80;68.20;;;;;;10853091;32;20056;-73
2022/10/08 17:39:31;;;;;;;9.52;5.03;;;20.80;68.40;;;;;;10861857;32;20114;-74
2022/10/08 17:46:09;;;;;;;6.72;4.65;;;20.80;68.60;;;;;;10863885;32;20027;-73
2022/10/08 17:52:11;;;;;;;10.75;4.75;;;20.70;68.70;;;;;;10865814;32;20051;-74
2022/10/08 17:58:14;;;;;;;9.15;6.05;;;20.50;69.10;;;;;;10865836;32;20096;-74
2022/10/08 18:04:18;;;;;;;11.12;6.15;;;20.50;69.50;;;;;;10872257;32;20028;-74
2022/10/08 18:10:20;;;;;;;9.85;6.53;;;20.30;70.20;;;;;;10859051;32;20057;-73
2022/10/08 18:16:24;;;;;;;10.63;5.82;;;20.30;70.60;;;;;;10872110;32;20050;-73
2022/10/08 18:22:26;;;;;;;14.27;6.93;;;20.30;71.00;;;;;;10854412;32;20031;-73
2022/10/08 18:28:36;;;;;;;10.77;6.60;;;20.20;71.80;;;;;;10871892;32;20360;-73
2022/10/08 18:34:40;;;;;;;12.02;7.85;;;20.00;72.60;;;;;;10862943;32;20062;-74
2022/10/08 18:40:42;;;;;;;13.40;9.20;;;20.00;72.60;;;;;;10832826;32;20299;-73
2022/10/08 18:46:46;;;;;;;11.63;6.30;;;20.00;72.40;;;;;;10834889;32;20369;-73
2022/10/08 18:52:58;;;;;;;11.82;7.75;;;19.90;72.70;;;;;;10857522;32;20020;-74
2022/10/08 18:59:06;;;;;;;11.93;9.50;;;19.80;73.50;;;;;;10835221;32;20052;-73
2022/10/08 19:05:08;;;;;;;9.68;7.28;;;19.80;74.10;;;;;;10831387;32;20332;-73
2022/10/08 19:11:13;;;;;;;14.65;10.05;;;19.80;74.10;;;;;;10828294;32;20050;-73
2022/10/08 19:17:15;;;;;;;9.48;6.45;;;19.80;74.00;;;;;;10832443;32;20341;-73
2022/10/08 19:23:17;;;;;;;9.55;7.10;;;19.80;74.20;;;;;;10832534;32;20032;-73
2022/10/08 19:29:27;;;;;;;11.05;8.65;;;19.70;74.30;;;;;;10832367;32;20392;-73
2022/10/08 19:35:29;;;;;;;11.25;8.25;;;19.70;74.90;;;;;;10832257;32;20054;-73
2022/10/08 19:41:31;;;;;;;13.48;8.75;;;19.60;75.40;;;;;;10831768;32;20032;-73
2022/10/08 19:47:34;;;;;;;9.98;7.87;;;19.60;75.80;;;;;;10827454;33;20056;-73
2022/10/08 19:53:37;;;;;;;12.00;8.38;;;19.50;76.00;;;;;;10827159;33;20305;-73
2022/10/08 19:59:39;;;;;;;8.80;6.97;;;19.50;76.30;;;;;;10831048;32;20384;-74
2022/10/08 20:05:40;;;;;;;10.60;8.30;;;19.40;76.40;;;;;;10842359;32;20050;-75
2022/10/08 20:11:44;;;;;;;11.23;8.10;;;19.40;76.20;;;;;;10826790;33;20028;-74
2022/10/08 20:17:46;;;;;;;12.95;8.52;;;19.30;76.10;;;;;;10830689;32;20031;-74
2022/10/08 20:23:48;;;;;;;11.55;7.28;;;19.30;76.40;;;;;;10830554;32;20031;-75
2022/10/08 20:29:50;;;;;;;12.93;7.12;;;19.30;76.30;;;;;;10830412;32;20392;-74
2022/10/08 20:35:53;;;;;;;9.45;7.90;;;19.20;76.40;;;;;;10829426;32;20307;-74
2022/10/08 20:41:57;;;;;;;15.52;9.48;;;19.10;77.20;;;;;;10826041;33;20302;-74
2022/10/08 20:48:02;;;;;;;13.85;11.07;;;19.00;77.90;;;;;;10829833;32;20328;-75
2022/10/08 20:54:07;;;;;;;11.95;9.93;;;19.00;78.00;;;;;;10825585;33;20043;-75
2022/10/08 21:00:21;;;;;;;9.23;5.90;;;18.90;78.30;;;;;;10829699;33;20078;-75
2022/10/08 21:06:46;;;;;;;12.50;8.88;;;18.90;78.50;;;;;;10787848;33;20062;-75
2022/10/08 21:12:50;;;;;;;14.23;8.65;;;18.90;78.80;;;;;;10784699;33;20389;-74
2022/10/08 21:19:27;;;;;;;10.23;7.62;;;18.90;78.90;;;;;;10785100;33;20037;-79
2022/10/08 21:25:29;;;;;;;12.48;7.93;;;19.00;78.50;;;;;;10779348;33;20298;-80
2022/10/08 21:31:34;;;;;;;8.30;6.85;;;19.00;78.40;;;;;;10789548;33;20037;-80
2022/10/08 21:37:36;;;;;;;16.25;9.00;;;19.00;78.30;;;;;;10821831;32;20340;-80
2022/10/08 21:43:49;;;;;;;12.05;8.43;;;18.90;78.70;;;;;;10832018;33;20371;-79
2022/10/08 21:49:52;;;;;;;9.65;7.00;;;18.90;78.70;;;;;;10835948;32;20047;-80
2022/10/08 21:56:00;;;;;;;9.07;7.15;;;18.80;78.60;;;;;;10822719;32;20090;-79
2022/10/08 22:02:02;;;;;;;15.73;7.00;;;18.80;78.70;;;;;;10835346;32;20031;-80
2022/10/08 22:08:32;;;;;;;10.02;7.85;;;18.80;78.60;;;;;;10822131;32;20070;-80
2022/10/08 22:14:34;;;;;;;9.18;6.75;;;18.80;78.90;;;;;;10838536;27;20036;-80
2022/10/08 22:20:52;;;;;;;9.32;6.93;;;18.80;79.20;;;;;;10817382;33;20404;-80
2022/10/08 22:26:54;;;;;;;8.18;7.28;;;18.80;79.30;;;;;;10834656;32;20020;-79
2022/10/08 22:32:56;;;;;;;10.63;8.88;;;18.80;79.50;;;;;;10821250;32;20024;-79
2022/10/08 22:39:05;;;;;;;9.57;7.50;;;18.70;79.30;;;;;;10830188;33;20349;-79
2022/10/08 22:45:10;;;;;;;12.02;9.15;;;18.70;79.20;;;;;;10833444;32;20032;-79
2022/10/08 22:51:21;;;;;;;10.48;8.32;;;18.70;79.30;;;;;;10833496;32;20015;-79
2022/10/08 22:57:23;;;;;;;11.02;7.75;;;18.80;79.50;;;;;;10832317;32;20047;-80
2022/10/08 23:03:26;;;;;;;16.48;9.20;;;18.70;79.80;;;;;;10833545;32;20419;-79
2022/10/08 23:09:28;;;;;;;9.88;8.02;;;18.70;79.90;;;;;;10833181;32;20016;-79
2022/10/08 23:15:57;;;;;;;12.00;10.20;;;18.70;79.90;;;;;;10828929;33;20384;-79
2022/10/08 23:21:59;;;;;;;13.20;11.15;;;18.70;79.90;;;;;;10832480;32;20023;-79
2022/10/08 23:28:02;;;;;;;14.63;11.20;;;18.70;80.00;;;;;;10830994;32;20028;-79
2022/10/08 23:34:06;;;;;;;13.68;11.75;;;18.70;80.00;;;;;;10832356;32;20020;-79
2022/10/08 23:40:08;;;;;;;14.00;10.27;;;18.60;80.20;;;;;;10832008;32;20024;-79
2022/10/08 23:46:12;;;;;;;14.95;11.25;;;18.60;80.20;;;;;;10827847;33;20024;-79
2022/10/08 23:52:20;;;;;;;15.05;11.43;;;18.60;80.20;;;;;;10830850;32;20020;-79
2022/10/08 23:58:22;;;;;;;14.13;11.70;;;18.60;80.30;;;;;;10831802;32;20031;-79
